Map

Track Data

SID SEASON NUMBER BASIN SUBBASIN NAME ISO_TIME NATURE LAT LON WMO_WIND WMO_PRES WMO_AGENCY TRACK_TYPE DIST2LAND LANDFALL IFLAG USA_AGENCY USA_ATCF_ID USA_LAT USA_LON USA_RECORD USA_STATUS USA_WIND USA_PRES USA_SSHS USA_R34_NE USA_R34_SE USA_R34_SW USA_R34_NW USA_R50_NE USA_R50_SE USA_R50_SW USA_R50_NW USA_R64_NE USA_R64_SE USA_R64_SW USA_R64_NW USA_POCI USA_ROCI USA_RMW USA_EYE TOKYO_LAT TOKYO_LON TOKYO_GRADE TOKYO_WIND TOKYO_PRES TOKYO_R50_DIR TOKYO_R50_LONG TOKYO_R50_SHORT TOKYO_R30_DIR TOKYO_R30_LONG TOKYO_R30_SHORT TOKYO_LAND CMA_LAT CMA_LON CMA_CAT CMA_WIND CMA_PRES HKO_LAT HKO_LON HKO_CAT HKO_WIND HKO_PRES NEWDELHI_LAT NEWDELHI_LON NEWDELHI_GRADE NEWDELHI_WIND NEWDELHI_PRES NEWDELHI_CI NEWDELHI_DP NEWDELHI_POCI REUNION_LAT REUNION_LON REUNION_TYPE REUNION_WIND REUNION_PRES REUNION_TNUM REUNION_CI REUNION_RMW REUNION_R34_NE REUNION_R34_SE REUNION_R34_SW REUNION_R34_NW REUNION_R50_NE REUNION_R50_SE REUNION_R50_SW REUNION_R50_NW REUNION_R64_NE REUNION_R64_SE REUNION_R64_SW REUNION_R64_NW BOM_LAT BOM_LON BOM_TYPE BOM_WIND BOM_PRES BOM_TNUM BOM_CI BOM_RMW BOM_R34_NE BOM_R34_SE BOM_R34_SW BOM_R34_NW BOM_R50_NE BOM_R50_SE BOM_R50_SW BOM_R50_NW BOM_R64_NE BOM_R64_SE BOM_R64_SW BOM_R64_NW BOM_ROCI BOM_POCI BOM_EYE BOM_POS_METHOD BOM_PRES_METHOD NADI_LAT NADI_LON NADI_CAT NADI_WIND NADI_PRES WELLINGTON_LAT WELLINGTON_LON WELLINGTON_WIND WELLINGTON_PRES DS824_LAT DS824_LON DS824_STAGE DS824_WIND DS824_PRES TD9636_LAT TD9636_LON TD9636_STAGE TD9636_WIND TD9636_PRES TD9635_LAT TD9635_LON TD9635_WIND TD9635_PRES TD9635_ROCI NEUMANN_LAT NEUMANN_LON NEUMANN_CLASS NEUMANN_WIND NEUMANN_PRES MLC_LAT MLC_LON MLC_CLASS MLC_WIND MLC_PRES USA_GUST BOM_GUST BOM_GUST_PER REUNION_GUST REUNION_GUST_PER USA_SEAHGT USA_SEARAD_NE USA_SEARAD_SE USA_SEARAD_SW USA_SEARAD_NW STORM_SPEED STORM_DIR
1990160N12250 1990 35 EP MM CRISTINA 1990-06-08 12:00:00 TS 11.6000 -110.000 25 1010 hurdat_epa main 1016 1007 O_____________ hurdat_epa EP031990 11.6000 -110.000 TD 25 1010 -1 1 0
1990160N12250 1990 35 EP MM CRISTINA 1990-06-08 15:00:00 TS 11.6625 -110.012 main 1007 1007 P_____________ EP031990 11.6625 -110.013 TD 25 1010 -1 1 0
1990160N12250 1990 35 EP MM CRISTINA 1990-06-08 18:00:00 TS 11.7000 -110.000 25 1010 hurdat_epa main 1007 1007 O_____________ hurdat_epa EP031990 11.7000 -110.000 TD 25 1010 -1 1 57
1990160N12250 1990 35 EP MM CRISTINA 1990-06-08 21:00:00 TS 11.7000 -109.953 main 1007 1001 P_____________ EP031990 11.7000 -109.950 TD 27 1009 -1 1 90
1990160N12250 1990 35 EP MM CRISTINA 1990-06-09 00:00:00 TS 11.7000 -109.900 30 1008 hurdat_epa main 1001 1001 O_____________ hurdat_epa EP031990 11.7000 -109.900 TD 30 1008 -1 1 81
1990160N12250 1990 35 EP MM CRISTINA 1990-06-09 03:00:00 TS 11.7125 -109.876 main 1001 992 P_____________ EP031990 11.7125 -109.893 TD 30 1007 -1 1 17
1990160N12250 1990 35 EP MM CRISTINA 1990-06-09 06:00:00 TS 11.8000 -109.867 30 1006 hurdat_epa main 992 973 O_____________ hurdat_epa EP031990 11.8000 -109.900 TD 30 1006 -1 3 0
1990160N12250 1990 35 EP MM CRISTINA 1990-06-09 09:00:00 TS 12.0125 -109.854 main 973 945 P_____________ EP031990 12.0125 -109.893 TD 32 1005 -1 5 2
1990160N12250 1990 35 EP MM CRISTINA 1990-06-09 12:00:00 TS 12.3000 -109.867 35 1005 hurdat_epa main 945 918 O_____________ hurdat_epa EP031990 12.3000 -109.900 TS 35 1005 0 6 356
1990160N12250 1990 35 EP MM CRISTINA 1990-06-09 15:00:00 TS 12.6075 -109.903 main 918 897 P_____________ EP031990 12.6075 -109.920 TS 35 1005 0 6 348
1990160N12250 1990 35 EP MM CRISTINA 1990-06-09 18:00:00 TS 12.9000 -110.000 35 1005 hurdat_epa main 897 886 O_____________ hurdat_epa EP031990 12.9000 -110.000 TS 35 1005 0 6 333
1990160N12250 1990 35 EP MM CRISTINA 1990-06-09 21:00:00 TS 13.1300 -110.172 main 893 883 P_____________ EP031990 13.1300 -110.170 TS 35 1004 0 6 316
1990160N12250 1990 35 EP MM CRISTINA 1990-06-10 00:00:00 TS 13.3000 -110.400 35 1003 hurdat_epa main 890 889 O_____________ hurdat_epa EP031990 13.3000 -110.400 TS 35 1003 0 6 302
1990160N12250 1990 35 EP MM CRISTINA 1990-06-10 03:00:00 TS 13.4225 -110.650 main 904 896 P_____________ EP031990 13.4225 -110.650 TS 37 1002 0 5 292
1990160N12250 1990 35 EP MM CRISTINA 1990-06-10 06:00:00 TS 13.5000 -110.900 40 1002 hurdat_epa main 911 911 O_____________ hurdat_epa EP031990 13.5000 -110.900 TS 40 1002 0 5 287
1990160N12250 1990 35 EP MM CRISTINA 1990-06-10 09:00:00 TS 13.5650 -111.130 main 918 918 P_____________ EP031990 13.5650 -111.130 TS 40 1001 0 4 284
1990160N12250 1990 35 EP MM CRISTINA 1990-06-10 12:00:00 TS 13.6000 -111.300 40 1000 hurdat_epa main 933 933 O_____________ hurdat_epa EP031990 13.6000 -111.300 TS 40 1000 0 2 280
1990160N12250 1990 35 EP MM CRISTINA 1990-06-10 15:00:00 TS 13.6075 -111.373 main 941 941 P_____________ EP031990 13.6075 -111.373 TS 42 999 0 1 270
1990160N12250 1990 35 EP MM CRISTINA 1990-06-10 18:00:00 TS 13.6000 -111.400 45 999 hurdat_epa main 941 941 O_____________ hurdat_epa EP031990 13.6000 -111.400 TS 45 999 0 1 254
1990160N12250 1990 35 EP MM CRISTINA 1990-06-10 21:00:00 TS 13.5850 -111.450 main 949 949 P_____________ EP031990 13.5850 -111.450 TS 45 998 0 1 270
1990160N12250 1990 35 EP MM CRISTINA 1990-06-11 00:00:00 TS 13.6000 -111.500 45 998 hurdat_epa main 949 941 O_____________ hurdat_epa EP031990 13.6000 -111.500 TS 45 998 0 1 317
1990160N12250 1990 35 EP MM CRISTINA 1990-06-11 03:00:00 TS 13.6850 -111.550 main 941 941 P_____________ EP031990 13.6850 -111.550 TS 45 997 0 2 333
1990160N12250 1990 35 EP MM CRISTINA 1990-06-11 06:00:00 TS 13.8000 -111.600 45 997 hurdat_epa main 941 933 O_____________ hurdat_epa EP031990 13.8000 -111.600 TS 45 997 0 2 353
1990160N12250 1990 35 EP MM CRISTINA 1990-06-11 09:00:00 TS 13.8999 -111.598 main 933 925 P_____________ EP031990 13.8999 -111.598 TS 47 996 0 2 333
1990160N12250 1990 35 EP MM CRISTINA 1990-06-11 12:00:00 TS 14.0000 -111.700 50 996 hurdat_epa main 933 933 O_____________ hurdat_epa EP031990 14.0000 -111.700 TS 50 996 0 5 293
1990160N12250 1990 35 EP MM CRISTINA 1990-06-11 15:00:00 TS 14.0851 -112.048 main 948 948 P_____________ EP031990 14.0851 -112.048 TS 50 996 0 8 284
1990160N12250 1990 35 EP MM CRISTINA 1990-06-11 18:00:00 TS 14.2000 -112.500 50 996 hurdat_epa main 982 982 O_____________ hurdat_epa EP031990 14.2000 -112.500 TS 50 996 0 9 290
1990160N12250 1990 35 EP MM CRISTINA 1990-06-11 21:00:00 TS 14.3850 -112.915 main 998 987 P_____________ EP031990 14.3850 -112.915 TS 50 995 0 9 297
1990160N12250 1990 35 EP MM CRISTINA 1990-06-12 00:00:00 TS 14.6000 -113.300 50 995 hurdat_epa main 991 977 O_____________ hurdat_epa EP031990 14.6000 -113.300 TS 50 995 0 8 302
1990160N12250 1990 35 EP MM CRISTINA 1990-06-12 03:00:00 TS 14.8074 -113.608 main 981 969 P_____________ EP031990 14.8074 -113.608 TS 52 995 0 7 305
1990160N12250 1990 35 EP MM CRISTINA 1990-06-12 06:00:00 TS 15.0000 -113.900 55 995 hurdat_epa main 974 968 O_____________ hurdat_epa EP031990 15.0000 -113.900 TS 55 995 0 7 300
1990160N12250 1990 35 EP MM CRISTINA 1990-06-12 09:00:00 TS 15.1574 -114.235 main 967 967 P_____________ EP031990 15.1574 -114.235 TS 55 994 0 7 294
1990160N12250 1990 35 EP MM CRISTINA 1990-06-12 12:00:00 TS 15.3000 -114.600 55 994 hurdat_epa main 977 973 O_____________ hurdat_epa EP031990 15.3000 -114.600 TS 55 994 0 8 293
1990160N12250 1990 35 EP MM CRISTINA 1990-06-12 15:00:00 TS 15.4650 -114.992 main 979 979 P_____________ EP031990 15.4650 -114.992 TS 55 994 0 8 291
1990160N12250 1990 35 EP MM CRISTINA 1990-06-12 18:00:00 TS 15.6000 -115.400 55 995 hurdat_epa main 993 993 O_____________ hurdat_epa EP031990 15.6000 -115.400 TS 55 995 0 8 284
1990160N12250 1990 35 EP MM CRISTINA 1990-06-12 21:00:00 TS 15.6574 -115.793 main 1009 1009 P_____________ EP031990 15.6574 -115.793 TS 52 995 0 8 277
1990160N12250 1990 35 EP MM CRISTINA 1990-06-13 00:00:00 TS 15.7000 -116.200 50 996 hurdat_epa main 1034 1034 O_____________ hurdat_epa EP031990 15.7000 -116.200 TS 50 996 0 8 279
1990160N12250 1990 35 EP MM CRISTINA 1990-06-13 03:00:00 TS 15.7849 -116.628 main 1053 1053 P_____________ EP031990 15.7849 -116.628 TS 50 997 0 9 283
1990160N12250 1990 35 EP MM CRISTINA 1990-06-13 06:00:00 TS 15.9000 -117.100 50 998 hurdat_epa main 1080 1080 O_____________ hurdat_epa EP031990 15.9000 -117.100 TS 50 998 0 10 285
1990160N12250 1990 35 EP MM CRISTINA 1990-06-13 09:00:00 TS 16.0425 -117.642 main 1108 1108 P_____________ EP031990 16.0425 -117.642 TS 47 999 0 11 286
1990160N12250 1990 35 EP MM CRISTINA 1990-06-13 12:00:00 TS 16.2000 -118.200 45 1000 hurdat_epa main 1139 1139 O_____________ hurdat_epa EP031990 16.2000 -118.200 TS 45 1000 0 11 286
1990160N12250 1990 35 EP MM CRISTINA 1990-06-13 15:00:00 TS 16.3349 -118.715 main 1163 1160 P_____________ EP031990 16.3349 -118.715 TS 40 1001 0 10 287
1990160N12250 1990 35 EP MM CRISTINA 1990-06-13 18:00:00 TS 16.5000 -119.200 35 1002 hurdat_epa main 1177 1174 O_____________ hurdat_epa EP031990 16.5000 -119.200 TS 35 1002 0 10 294
1990160N12250 1990 35 EP MM CRISTINA 1990-06-13 21:00:00 TS 16.7500 -119.680 main 1193 1184 P_____________ EP031990 16.7500 -119.680 TS 32 1003 -1 10 300
1990160N12250 1990 35 EP MM CRISTINA 1990-06-14 00:00:00 TS 17.0000 -120.100 30 1005 hurdat_epa main 1196 1195 O_____________ hurdat_epa EP031990 17.0000 -120.100 TD 30 1005 -1 8 300
1990160N12250 1990 35 EP MM CRISTINA 1990-06-14 03:00:00 TS 17.1724 -120.438 main 1201 1201 P_____________ EP031990 17.1724 -120.438 TD 30 1006 -1 6 298
1990160N12250 1990 35 EP MM CRISTINA 1990-06-14 06:00:00 TS 17.3000 -120.700 30 1008 hurdat_epa main 1216 1215 O_____________ hurdat_epa EP031990 17.3000 -120.700 TD 30 1008 -1 5 298
1990160N12250 1990 35 EP MM CRISTINA 1990-06-14 09:00:00 TS 17.4074 -120.908 main 1223 1223 P_____________ EP031990 17.4074 -120.908 TD 27 1008 -1 4 298
1990160N12250 1990 35 EP MM CRISTINA 1990-06-14 12:00:00 TS 17.5000 -121.100 25 1009 hurdat_epa main 1231 1231 O_____________ hurdat_epa EP031990 17.5000 -121.100 TD 25 1009 -1 5 295
1990160N12250 1990 35 EP MM CRISTINA 1990-06-14 15:00:00 TS 17.6075 -121.350 main 1239 1239 P_____________ EP031990 17.6075 -121.350 TD 25 1009 -1 5 293
1990160N12250 1990 35 EP MM CRISTINA 1990-06-14 18:00:00 TS 17.7000 -121.600 25 1010 hurdat_epa main 1255 1255 O_____________ hurdat_epa EP031990 17.7000 -121.600 TD 25 1010 -1 5 288
1990160N12250 1990 35 EP MM CRISTINA 1990-06-14 21:00:00 TS 17.7499 -121.800 main 1271 1264 P_____________ EP031990 17.7499 -121.800 TD 25 1010 -1 4 285
1990160N12250 1990 35 EP MM CRISTINA 1990-06-15 00:00:00 TS 17.8000 -122.000 25 1010 hurdat_epa main 1280 1280 O_____________ hurdat_epa EP031990 17.8000 -122.000 TD 25 1010 -1 5 290
1990160N12250 1990 35 EP MM CRISTINA 1990-06-15 03:00:00 TS 17.9075 -122.250 main 1290 1290 P_____________ EP031990 17.9075 -122.250 TD 25 1010 -1 5 293
1990160N12250 1990 35 EP MM CRISTINA 1990-06-15 06:00:00 TS 18.0000 -122.500 25 1010 hurdat_epa main 1308 1308 O_____________ hurdat_epa EP031990 18.0000 -122.500 TD 25 1010 -1 5 286
1990160N12250 1990 35 EP MM CRISTINA 1990-06-15 09:00:00 TS 18.0300 -122.708 main 1325 1325 P_____________ EP031990 18.0300 -122.708 TD 25 1010 -1 4 270
1990160N12250 1990 35 EP MM CRISTINA 1990-06-15 12:00:00 TS 18.0000 -122.900 25 1010 hurdat_epa main 1342 1342 O_____________ hurdat_epa EP031990 18.0000 -122.900 TD 25 1010 -1 4 251
1990160N12250 1990 35 EP MM CRISTINA 1990-06-15 15:00:00 TS 17.9098 -123.065 main 1366 1366 P_____________ EP031990 17.9074 -123.078 TD 22 1010 -1 4 242
1990160N12250 1990 35 EP MM CRISTINA 1990-06-15 18:00:00 TS 17.8000 -123.300 20 1010 hurdat_epa main 1389 1389 O_____________ hurdat_epa EP031990 17.8000 -123.300 TD 20 1010 -1 7 254
1990160N12250 1990 35 EP MM CRISTINA 1990-06-15 21:00:00 TS 17.7237 -123.738 main 1427 1427 P_____________ EP031990 17.7426 -123.642 TD 20 1010 -1 8 261
1990160N12250 1990 35 EP MM CRISTINA 1990-06-16 00:00:00 TS 17.6667 -124.167 20 1011 hurdat_epa main 1461 1461 O_____________ hurdat_epa EP031990 17.7000 -124.000 TD 20 1011 -1 6 261
1990160N12250 1990 35 EP MM CRISTINA 1990-06-16 03:00:00 TS 17.6282 -124.398 main 1483 1483 P_____________ EP031990 17.6525 -124.278 TD 20 1011 -1 3 258
1990160N12250 1990 35 EP MM CRISTINA 1990-06-16 06:00:00 TS 17.6000 -124.500 20 1011 hurdat_epa main 1490 O_____________ hurdat_epa EP031990 17.6000 -124.500 TD 20 1011 -1 2 254

About IBTrACS Database

This database is a web-friendly format of International Best Track Archive for Climate Stewardship (IBTrACS), a global best track data archive curated by NOAA dating back to 1842.

Updated: 2021-12-08